Time;durP1;ratioP1;P1;durP2;ratioP2;P2;SDS_P1;SDS_P2;PMS_P1;PMS_P2;Temp;Humidity;BMP_temperature;BMP_pressure;BME280_temperature;BME280_humidity;BME280_pressure;Samples;Min_cycle;Max_cycle;Signal;HPM_P1;HPM_P2
2023/05/15 00:00:39;;;;;;;7.35;6.63;;;;;;;;;;5040409;28;20028;-67
2023/05/15 00:03:04;;;;;;;7.68;6.68;;;;;;;;;;5023569;28;20117;-67
2023/05/15 00:05:30;;;;;;;11.55;7.78;;;;;;;;;;5039960;28;20037;-68
2023/05/15 00:07:56;;;;;;;9.95;7.10;;;;;;;;;;5041887;28;20484;-67
2023/05/15 00:10:21;;;;;;;12.55;7.75;;;;;;;;;;5040224;28;20040;-67
2023/05/15 00:12:47;;;;;;;9.23;7.80;;;;;;;;;;5042185;28;20033;-67
2023/05/15 00:15:12;;;;;;;10.23;6.97;;;;;;;;;;5034958;28;20064;-67
2023/05/15 00:17:38;;;;;;;8.07;7.03;;;;;;;;;;5037490;28;20036;-67
2023/05/15 00:20:04;;;;;;;7.82;6.90;;;;;;;;;;5039982;28;20703;-67
2023/05/15 00:22:29;;;;;;;6.82;6.22;;;;;;;;;;5038302;28;20033;-67
2023/05/15 00:24:55;;;;;;;7.28;6.30;;;;;;;;;;5038459;28;20064;-66
2023/05/15 00:27:20;;;;;;;9.15;7.22;;;;;;;;;;5036315;28;20497;-67
2023/05/15 00:29:46;;;;;;;7.32;6.63;;;;;;;;;;5019495;28;20040;-67
2023/05/15 00:32:11;;;;;;;9.07;7.10;;;;;;;;;;5020820;28;20028;-67
2023/05/15 00:34:37;;;;;;;7.70;6.97;;;;;;;;;;5024144;28;20036;-67
2023/05/15 00:37:02;;;;;;;5.45;4.97;;;;;;;;;;5042548;28;20037;-66
2023/05/15 00:39:28;;;;;;;6.88;6.25;;;;;;;;;;5042710;28;20044;-67
2023/05/15 00:41:55;;;;;;;5.95;5.45;;;;;;;;;;5044802;28;20439;-67
2023/05/15 00:44:22;;;;;;;6.30;5.55;;;;;;;;;;5044275;28;20041;-67
2023/05/15 00:46:48;;;;;;;6.35;5.82;;;;;;;;;;5041585;28;20095;-67
2023/05/15 00:49:15;;;;;;;9.15;6.90;;;;;;;;;;5039239;28;20040;-66
2023/05/15 00:51:43;;;;;;;7.10;6.40;;;;;;;;;;5042146;28;20123;-67
2023/05/15 00:54:09;;;;;;;7.50;6.78;;;;;;;;;;5025483;28;20044;-66
2023/05/15 00:56:36;;;;;;;7.63;6.75;;;;;;;;;;5026304;28;20094;-66
2023/05/15 00:59:03;;;;;;;6.63;5.95;;;;;;;;;;5041768;28;20227;-66
2023/05/15 01:01:32;;;;;;;8.90;6.95;;;;;;;;;;5042262;28;20443;-67
2023/05/15 01:03:58;;;;;;;7.72;6.65;;;;;;;;;;5038494;28;20057;-66
2023/05/15 01:06:25;;;;;;;7.18;6.22;;;;;;;;;;5024588;28;20040;-67
2023/05/15 01:08:55;;;;;;;8.15;6.53;;;;;;;;;;5042854;28;20021;-67
2023/05/15 01:11:23;;;;;;;;;;;;;;;;;;5023450;28;20045;-67
2023/05/15 01:13:50;;;;;;;7.60;6.55;;;;;;;;;;5023723;28;20459;-67
2023/05/15 01:16:16;;;;;;;7.15;6.22;;;;;;;;;;5016115;28;20116;-66
2023/05/15 01:18:41;;;;;;;6.72;6.10;;;;;;;;;;5039638;28;20039;-66
2023/05/15 01:21:34;;;;;;;6.57;5.97;;;;;;;;;;5026748;28;20448;-66
2023/05/15 01:24:00;;;;;;;7.05;6.30;;;;;;;;;;5041332;28;20041;-67
2023/05/15 01:26:59;;;;;;;6.85;6.13;;;;;;;;;;5027372;28;20029;-67
2023/05/15 01:29:41;;;;;;;7.72;6.30;;;;;;;;;;5026298;28;20033;-67
2023/05/15 01:32:23;;;;;;;6.72;6.03;;;;;;;;;;5026300;28;20063;-67
2023/05/15 01:35:00;;;;;;;7.72;6.32;;;;;;;;;;5028080;28;20124;-68
2023/05/15 01:37:30;;;;;;;6.60;6.07;;;;;;;;;;5030668;28;20051;-67
2023/05/15 01:39:59;;;;;;;6.70;6.07;;;;;;;;;;5045022;28;20040;-67
2023/05/15 01:42:33;;;;;;;6.43;5.82;;;;;;;;;;5022730;28;20051;-67
2023/05/15 01:45:03;;;;;;;6.38;5.78;;;;;;;;;;5035283;28;20032;-67
2023/05/15 01:47:40;;;;;;;8.05;6.75;;;;;;;;;;5022253;28;20116;-67
2023/05/15 01:50:08;;;;;;;8.00;6.70;;;;;;;;;;5043325;28;20060;-67
2023/05/15 01:52:38;;;;;;;7.40;6.07;;;;;;;;;;5039476;28;20043;-66
2023/05/15 01:55:05;;;;;;;;;;;;;;;;;;5041491;28;20033;-67
2023/05/15 01:57:34;;;;;;;5.78;5.28;;;;;;;;;;5046651;28;19916;-67
2023/05/15 02:00:01;;;;;;;7.43;6.18;;;;;;;;;;5044895;28;20055;-67
2023/05/15 02:02:30;;;;;;;6.55;5.95;;;;;;;;;;5025609;28;20037;-66
2023/05/15 02:04:56;;;;;;;6.10;5.53;;;;;;;;;;5028278;28;20024;-66
2023/05/15 02:07:22;;;;;;;6.22;5.63;;;;;;;;;;5026421;28;20037;-66
2023/05/15 02:09:51;;;;;;;7.43;6.63;;;;;;;;;;5015511;28;20095;-66
2023/05/15 02:12:18;;;;;;;7.07;6.40;;;;;;;;;;5013932;28;20500;-67
2023/05/15 02:14:45;;;;;;;12.73;6.38;;;;;;;;;;5031508;28;20493;-67
2023/05/15 02:17:11;;;;;;;8.88;6.35;;;;;;;;;;5038083;28;20492;-66
2023/05/15 02:19:36;;;;;;;6.72;6.13;;;;;;;;;;5036777;28;20121;-67
2023/05/15 02:22:05;;;;;;;7.35;6.65;;;;;;;;;;5026039;28;20501;-66
2023/05/15 02:24:32;;;;;;;7.72;5.18;;;;;;;;;;5045115;28;20041;-66
2023/05/15 02:27:03;;;;;;;6.55;5.78;;;;;;;;;;5040579;28;20168;-67
2023/05/15 02:29:47;;;;;;;7.50;6.32;;;;;;;;;;5038017;28;20041;-66
2023/05/15 02:32:27;;;;;;;6.53;5.95;;;;;;;;;;5038066;28;20037;-66
2023/05/15 02:35:22;;;;;;;6.57;5.95;;;;;;;;;;5026284;28;20081;-67
2023/05/15 02:37:51;;;;;;;6.35;5.65;;;;;;;;;;5019467;28;20047;-66
2023/05/15 02:40:17;;;;;;;;;;;;;;;;;;5020683;28;20068;-67
2023/05/15 02:42:45;;;;;;;6.35;5.85;;;;;;;;;;5044392;28;19951;-66
2023/05/15 02:45:11;;;;;;;6.20;5.60;;;;;;;;;;5019468;28;20127;-66
2023/05/15 02:47:39;;;;;;;6.35;5.75;;;;;;;;;;5023555;28;20099;-68
2023/05/15 02:50:05;;;;;;;6.75;5.55;;;;;;;;;;5023061;28;20103;-67
2023/05/15 02:52:36;;;;;;;6.88;6.28;;;;;;;;;;5024931;28;20037;-68
2023/05/15 02:55:01;;;;;;;7.05;5.68;;;;;;;;;;5023709;28;20039;-68
2023/05/15 02:57:27;;;;;;;6.22;5.63;;;;;;;;;;5039682;28;20420;-67
2023/05/15 02:59:54;;;;;;;6.30;5.70;;;;;;;;;;5039784;28;20089;-68
2023/05/15 03:02:20;;;;;;;6.47;5.88;;;;;;;;;;5023517;28;20092;-67
2023/05/15 03:04:45;;;;;;;5.65;5.15;;;;;;;;;;5043215;28;20429;-67
2023/05/15 03:07:13;;;;;;;7.40;6.60;;;;;;;;;;5007245;28;20496;-68
2023/05/15 03:09:39;;;;;;;5.90;5.28;;;;;;;;;;5039116;28;20032;-68
2023/05/15 03:12:05;;;;;;;6.50;5.85;;;;;;;;;;5009382;28;20037;-68
2023/05/15 03:14:31;;;;;;;5.80;5.30;;;;;;;;;;5023008;28;20037;-67
2023/05/15 03:16:58;;;;;;;6.43;5.82;;;;;;;;;;5021915;28;20038;-68
2023/05/15 03:19:23;;;;;;;5.80;5.20;;;;;;;;;;5036773;28;20051;-68
2023/05/15 03:21:49;;;;;;;6.93;6.25;;;;;;;;;;5042414;28;20037;-68
2023/05/15 03:24:14;;;;;;;6.32;5.65;;;;;;;;;;5040877;28;20033;-68
2023/05/15 03:26:41;;;;;;;5.82;5.20;;;;;;;;;;5038048;28;20539;-68
2023/05/15 03:29:07;;;;;;;7.38;5.45;;;;;;;;;;5019860;28;20036;-66
2023/05/15 03:31:32;;;;;;;6.18;5.57;;;;;;;;;;5039233;28;20087;-66
2023/05/15 03:33:58;;;;;;;6.57;5.97;;;;;;;;;;5039569;28;20028;-66
2023/05/15 03:36:24;;;;;;;7.00;6.03;;;;;;;;;;5028117;28;20037;-66
2023/05/15 03:38:49;;;;;;;6.05;5.45;;;;;;;;;;5022741;28;20037;-67
2023/05/15 03:41:15;;;;;;;7.05;5.68;;;;;;;;;;5043418;28;20033;-67
2023/05/15 03:43:40;;;;;;;5.95;5.45;;;;;;;;;;5037886;28;20043;-67
2023/05/15 03:46:06;;;;;;;6.75;6.05;;;;;;;;;;5042676;28;20060;-67
2023/05/15 03:48:32;;;;;;;10.80;6.00;;;;;;;;;;5040946;28;20047;-67
2023/05/15 03:50:57;;;;;;;6.28;5.65;;;;;;;;;;5021010;28;20045;-67
2023/05/15 03:53:23;;;;;;;6.65;6.05;;;;;;;;;;5038096;28;20155;-67
2023/05/15 03:55:51;;;;;;;6.73;6.10;;;;;;;;;;5025724;28;20041;-67
2023/05/15 03:58:17;;;;;;;5.25;4.80;;;;;;;;;;5041268;28;20112;-67
2023/05/15 04:00:43;;;;;;;7.43;5.88;;;;;;;;;;5020826;28;20098;-67
2023/05/15 04:03:08;;;;;;;6.35;5.75;;;;;;;;;;5035860;28;20041;-67
2023/05/15 04:05:34;;;;;;;7.75;7.00;;;;;;;;;;5041547;28;20033;-67
2023/05/15 04:07:59;;;;;;;7.20;5.97;;;;;;;;;;5037945;28;20082;-67
2023/05/15 04:10:25;;;;;;;6.85;6.25;;;;;;;;;;5038935;28;20039;-67
2023/05/15 04:12:50;;;;;;;6.55;5.88;;;;;;;;;;5031397;28;20025;-67
2023/05/15 04:15:21;;;;;;;7.15;6.05;;;;;;;;;;5038208;28;20696;-66
2023/05/15 04:17:49;;;;;;;7.65;6.10;;;;;;;;;;5035110;28;20037;-67
2023/05/15 04:20:18;;;;;;;11.98;6.28;;;;;;;;;;5039687;28;20115;-67
2023/05/15 04:22:44;;;;;;;7.13;6.50;;;;;;;;;;5032075;28;20035;-67
2023/05/15 04:25:10;;;;;;;7.15;6.47;;;;;;;;;;5041624;28;20505;-67
2023/05/15 04:27:37;;;;;;;7.38;5.88;;;;;;;;;;5036895;28;20069;-67
2023/05/15 04:30:04;;;;;;;6.68;6.07;;;;;;;;;;5038195;28;20124;-67
2023/05/15 04:32:30;;;;;;;6.93;6.30;;;;;;;;;;5040506;28;20029;-67
2023/05/15 04:34:55;;;;;;;6.00;5.53;;;;;;;;;;5041273;28;20499;-67
2023/05/15 04:37:21;;;;;;;6.70;6.10;;;;;;;;;;5033322;28;20038;-67
2023/05/15 04:39:47;;;;;;;6.97;6.30;;;;;;;;;;5039168;28;20036;-67
2023/05/15 04:42:12;;;;;;;7.13;6.18;;;;;;;;;;5037715;28;20029;-67
2023/05/15 04:44:38;;;;;;;6.70;6.13;;;;;;;;;;5037304;28;20165;-67
2023/05/15 04:47:03;;;;;;;9.13;7.40;;;;;;;;;;5034196;28;20035;-67
2023/05/15 04:49:29;;;;;;;6.57;5.97;;;;;;;;;;5036126;28;20037;-67
2023/05/15 04:51:54;;;;;;;7.05;6.35;;;;;;;;;;5040777;28;20063;-67
2023/05/15 04:54:20;;;;;;;8.02;6.65;;;;;;;;;;5034791;28;20061;-67
2023/05/15 04:56:46;;;;;;;6.60;6.00;;;;;;;;;;5036589;28;20040;-67
2023/05/15 04:59:12;;;;;;;6.97;6.05;;;;;;;;;;5038589;28;20124;-67
2023/05/15 05:01:38;;;;;;;6.82;5.40;;;;;;;;;;5034677;28;20531;-67
2023/05/15 05:04:04;;;;;;;6.97;6.05;;;;;;;;;;5036411;28;20029;-67
2023/05/15 05:06:29;;;;;;;5.90;5.22;;;;;;;;;;5038675;28;20040;-66
2023/05/15 05:08:55;;;;;;;6.13;5.63;;;;;;;;;;5040102;28;20154;-66
2023/05/15 05:11:21;;;;;;;5.35;4.95;;;;;;;;;;5039464;28;20038;-66
2023/05/15 05:13:48;;;;;;;6.68;5.97;;;;;;;;;;5036272;28;20029;-67
2023/05/15 05:16:13;;;;;;;5.78;5.35;;;;;;;;;;5036917;28;20034;-66
2023/05/15 05:18:39;;;;;;;6.10;5.60;;;;;;;;;;5042319;28;20032;-66
2023/05/15 05:21:04;;;;;;;6.00;5.50;;;;;;;;;;5038710;28;20487;-67
2023/05/15 05:23:30;;;;;;;5.68;5.18;;;;;;;;;;5028823;28;20120;-66
2023/05/15 05:25:56;;;;;;;6.40;5.82;;;;;;;;;;5040120;28;20048;-66
2023/05/15 05:28:22;;;;;;;6.30;5.80;;;;;;;;;;5041370;28;20047;-66
2023/05/15 05:30:48;;;;;;;6.68;5.75;;;;;;;;;;5038862;28;20033;-67
2023/05/15 05:33:14;;;;;;;7.10;5.72;;;;;;;;;;5038483;28;20041;-66
2023/05/15 05:35:39;;;;;;;5.97;5.43;;;;;;;;;;5043628;28;20059;-67
2023/05/15 05:38:05;;;;;;;7.07;5.78;;;;;;;;;;5037303;28;20490;-67
2023/05/15 05:40:31;;;;;;;6.13;5.60;;;;;;;;;;5033229;28;20044;-66
2023/05/15 05:43:00;;;;;;;5.78;5.20;;;;;;;;;;5035786;28;20508;-67
2023/05/15 05:45:26;;;;;;;6.30;5.80;;;;;;;;;;5041857;28;20584;-67
2023/05/15 05:47:52;;;;;;;6.43;5.53;;;;;;;;;;5041646;28;20766;-67
2023/05/15 05:50:17;;;;;;;5.70;5.18;;;;;;;;;;5041461;28;20033;-67
2023/05/15 05:52:43;;;;;;;5.80;5.30;;;;;;;;;;5041520;28;20037;-67
2023/05/15 05:55:09;;;;;;;5.80;5.30;;;;;;;;;;5042055;28;20043;-67
2023/05/15 05:57:34;;;;;;;7.53;5.72;;;;;;;;;;5039383;28;20037;-67
2023/05/15 06:00:00;;;;;;;5.75;5.25;;;;;;;;;;5042643;28;20040;-66
2023/05/15 06:02:26;;;;;;;5.93;5.43;;;;;;;;;;5042031;28;20033;-66
2023/05/15 06:04:51;;;;;;;6.47;5.88;;;;;;;;;;5038922;28;20037;-67
2023/05/15 06:07:17;;;;;;;6.18;5.68;;;;;;;;;;5041257;28;20044;-68
2023/05/15 06:09:44;;;;;;;8.88;6.38;;;;;;;;;;5043942;28;20041;-68
2023/05/15 06:12:10;;;;;;;7.25;6.55;;;;;;;;;;5036078;28;20037;-66
2023/05/15 06:14:35;;;;;;;7.10;5.78;;;;;;;;;;5036953;28;20554;-67
2023/05/15 06:17:01;;;;;;;6.35;5.78;;;;;;;;;;5037571;28;20046;-68
2023/05/15 06:19:28;;;;;;;6.90;6.15;;;;;;;;;;5035798;28;20112;-67
2023/05/15 06:21:53;;;;;;;5.93;5.43;;;;;;;;;;5040087;28;20048;-67
2023/05/15 06:24:19;;;;;;;6.13;5.22;;;;;;;;;;5038536;28;20033;-67
2023/05/15 06:26:44;;;;;;;6.63;6.05;;;;;;;;;;5036140;28;20495;-67
2023/05/15 06:29:10;;;;;;;8.20;6.22;;;;;;;;;;5040339;28;20025;-67
2023/05/15 06:31:35;;;;;;;5.70;5.20;;;;;;;;;;5039622;28;20113;-67
2023/05/15 06:34:01;;;;;;;6.18;5.57;;;;;;;;;;5041622;28;20075;-67
2023/05/15 06:36:27;;;;;;;6.30;5.65;;;;;;;;;;5035445;28;20065;-67
2023/05/15 06:38:52;;;;;;;5.90;5.40;;;;;;;;;;5042679;28;20499;-67
2023/05/15 06:41:18;;;;;;;7.25;6.55;;;;;;;;;;5036457;28;20535;-67
2023/05/15 06:43:43;;;;;;;6.13;5.60;;;;;;;;;;5036858;28;20034;-67
2023/05/15 06:46:09;;;;;;;6.03;5.47;;;;;;;;;;5036857;28;20045;-67
2023/05/15 06:48:35;;;;;;;5.38;4.88;;;;;;;;;;5039838;28;20393;-67
2023/05/15 06:51:00;;;;;;;6.45;4.93;;;;;;;;;;5042026;28;20060;-67
2023/05/15 06:53:28;;;;;;;5.93;5.43;;;;;;;;;;5039285;28;20391;-67
2023/05/15 06:55:54;;;;;;;10.23;5.93;;;;;;;;;;5040605;28;20041;-67
2023/05/15 06:58:19;;;;;;;7.55;6.60;;;;;;;;;;5035080;28;20037;-67
2023/05/15 07:00:45;;;;;;;6.85;6.22;;;;;;;;;;5042814;28;20037;-68
2023/05/15 07:03:13;;;;;;;6.90;6.10;;;;;;;;;;5035244;28;20348;-67
2023/05/15 07:05:38;;;;;;;7.63;6.38;;;;;;;;;;5036078;28;20033;-67
2023/05/15 07:08:04;;;;;;;7.07;6.28;;;;;;;;;;5040977;28;20060;-67
2023/05/15 07:10:30;;;;;;;7.10;6.50;;;;;;;;;;5040735;28;20048;-67
2023/05/15 07:12:55;;;;;;;6.95;6.28;;;;;;;;;;5035982;28;20086;-68
2023/05/15 07:15:21;;;;;;;6.15;5.65;;;;;;;;;;5039423;28;20067;-67
2023/05/15 07:17:47;;;;;;;7.80;5.60;;;;;;;;;;5039000;28;20026;-67
2023/05/15 07:20:12;;;;;;;6.10;5.07;;;;;;;;;;5041472;28;20044;-67
2023/05/15 07:22:38;;;;;;;5.40;4.90;;;;;;;;;;5034370;28;20495;-66
2023/05/15 07:25:05;;;;;;;6.50;5.80;;;;;;;;;;5043214;28;20032;-67
2023/05/15 07:27:31;;;;;;;6.68;5.50;;;;;;;;;;5044718;28;20031;-67
2023/05/15 07:29:56;;;;;;;6.10;5.50;;;;;;;;;;5038881;28;20029;-67
2023/05/15 07:32:22;;;;;;;6.38;5.78;;;;;;;;;;5033671;28;20334;-67
2023/05/15 07:34:47;;;;;;;6.15;5.50;;;;;;;;;;5040924;28;20033;-67
2023/05/15 07:37:13;;;;;;;6.53;5.93;;;;;;;;;;5036346;28;20040;-67
2023/05/15 07:39:38;;;;;;;6.22;5.63;;;;;;;;;;5041478;28;20045;-66
2023/05/15 07:42:04;;;;;;;7.10;5.70;;;;;;;;;;5036037;28;20498;-66
2023/05/15 07:44:29;;;;;;;6.65;6.00;;;;;;;;;;5037824;28;20051;-66
2023/05/15 07:46:55;;;;;;;6.32;5.72;;;;;;;;;;5038971;28;20041;-67
2023/05/15 07:49:21;;;;;;;7.30;5.80;;;;;;;;;;5035283;28;20545;-66
2023/05/15 07:51:47;;;;;;;6.47;5.80;;;;;;;;;;5043848;28;20549;-66
2023/05/15 07:54:12;;;;;;;6.25;5.75;;;;;;;;;;5039346;28;20099;-66
2023/05/15 07:56:38;;;;;;;6.32;5.18;;;;;;;;;;5038185;28;20439;-66
2023/05/15 07:59:03;;;;;;;5.95;5.40;;;;;;;;;;5035117;28;20029;-66
2023/05/15 08:01:29;;;;;;;6.50;5.80;;;;;;;;;;5039594;28;20040;-66
2023/05/15 08:03:55;;;;;;;6.25;5.65;;;;;;;;;;5044696;28;20029;-66
2023/05/15 08:06:20;;;;;;;7.07;6.32;;;;;;;;;;5035010;28;20086;-67
2023/05/15 08:08:46;;;;;;;8.10;5.85;;;;;;;;;;5039223;28;20025;-67
2023/05/15 08:11:11;;;;;;;6.20;5.63;;;;;;;;;;5041451;28;20417;-67
2023/05/15 08:13:37;;;;;;;6.18;5.63;;;;;;;;;;5040621;28;20108;-66
2023/05/15 08:16:03;;;;;;;5.45;5.05;;;;;;;;;;5032469;28;20448;-67
2023/05/15 08:18:28;;;;;;;5.75;5.20;;;;;;;;;;5035659;28;20040;-67
2023/05/15 08:20:54;;;;;;;4.90;4.50;;;;;;;;;;5037524;28;20041;-67
2023/05/15 08:23:19;;;;;;;4.57;4.28;;;;;;;;;;5034030;28;20497;-67
2023/05/15 08:25:45;;;;;;;4.50;4.10;;;;;;;;;;5037224;28;20036;-66
2023/05/15 08:28:10;;;;;;;4.82;3.92;;;;;;;;;;5039789;28;20472;-67
2023/05/15 08:30:36;;;;;;;5.70;5.10;;;;;;;;;;5038169;28;20027;-66
2023/05/15 08:33:02;;;;;;;4.80;4.40;;;;;;;;;;5041527;28;20090;-67
2023/05/15 08:35:27;;;;;;;6.18;4.95;;;;;;;;;;5040426;28;20297;-67
2023/05/15 08:37:53;;;;;;;5.50;5.00;;;;;;;;;;5041621;28;20028;-67
2023/05/15 08:40:18;;;;;;;5.13;4.72;;;;;;;;;;5039083;28;20037;-67
2023/05/15 08:42:48;;;;;;;5.00;4.57;;;;;;;;;;5034799;28;20056;-66
2023/05/15 08:45:14;;;;;;;5.13;4.72;;;;;;;;;;5040299;28;20056;-66
2023/05/15 08:47:41;;;;;;;5.10;4.70;;;;;;;;;;5035414;28;20732;-67
2023/05/15 08:50:13;;;;;;;4.63;4.22;;;;;;;;;;5033659;28;20182;-66
2023/05/15 08:52:46;;;;;;;5.82;4.70;;;;;;;;;;5036306;28;20057;-66
2023/05/15 08:55:15;;;;;;;5.57;4.57;;;;;;;;;;5043935;28;20520;-66
2023/05/15 08:57:42;;;;;;;4.30;4.00;;;;;;;;;;5040332;28;20060;-67
2023/05/15 09:00:10;;;;;;;4.22;3.92;;;;;;;;;;5038664;28;20038;-67
2023/05/15 09:02:37;;;;;;;4.25;3.85;;;;;;;;;;5040932;28;20036;-67
2023/05/15 09:05:05;;;;;;;4.70;4.30;;;;;;;;;;5045982;28;20488;-66
2023/05/15 09:07:31;;;;;;;4.18;3.88;;;;;;;;;;5040997;28;20083;-67
2023/05/15 09:09:57;;;;;;;4.25;3.95;;;;;;;;;;5041708;28;20028;-66
2023/05/15 09:12:25;;;;;;;9.82;3.90;;;;;;;;;;5048582;28;20040;-66
2023/05/15 09:14:50;;;;;;;5.05;4.43;;;;;;;;;;5041683;28;20162;-67
2023/05/15 09:17:16;;;;;;;5.00;4.50;;;;;;;;;;5037874;28;20124;-66
2023/05/15 09:19:42;;;;;;;5.40;4.90;;;;;;;;;;5043257;28;20446;-67
2023/05/15 09:22:17;;;;;;;4.90;4.50;;;;;;;;;;5044243;28;20040;-66
2023/05/15 09:24:46;;;;;;;4.60;4.20;;;;;;;;;;5037683;28;20037;-66
2023/05/15 09:27:12;;;;;;;4.40;4.10;;;;;;;;;;5039043;28;20033;-67
2023/05/15 09:29:38;;;;;;;4.95;4.60;;;;;;;;;;5042092;28;20052;-66
2023/05/15 09:32:09;;;;;;;5.47;4.97;;;;;;;;;;5039395;28;20025;-66
2023/05/15 09:34:37;;;;;;;5.05;4.60;;;;;;;;;;5039633;28;20029;-66
2023/05/15 09:37:06;;;;;;;16.05;4.97;;;;;;;;;;5044503;28;20044;-66
2023/05/15 09:39:33;;;;;;;4.15;3.83;;;;;;;;;;5042375;28;20033;-66
2023/05/15 09:42:25;;;;;;;5.95;4.10;;;;;;;;;;5040228;28;20045;-66
2023/05/15 09:44:50;;;;;;;4.72;4.20;;;;;;;;;;5040898;28;20045;-66
2023/05/15 09:47:16;;;;;;;4.50;4.10;;;;;;;;;;5038093;28;20033;-66
2023/05/15 09:49:45;;;;;;;7.22;4.80;;;;;;;;;;5045248;28;20085;-66
2023/05/15 09:52:14;;;;;;;4.75;4.22;;;;;;;;;;5043176;28;20072;-66
2023/05/15 09:54:44;;;;;;;4.50;4.13;;;;;;;;;;5044925;28;20037;-67
2023/05/15 09:57:12;;;;;;;4.53;4.22;;;;;;;;;;5045287;28;20039;-66
2023/05/15 09:59:46;;;;;;;4.38;4.00;;;;;;;;;;5042646;28;20134;-66
2023/05/15 10:02:31;;;;;;;5.00;4.57;;;;;;;;;;5035826;28;20503;-66
2023/05/15 10:04:57;;;;;;;5.07;4.70;;;;;;;;;;5043608;28;20040;-66
2023/05/15 10:07:27;;;;;;;4.90;4.50;;;;;;;;;;5039363;28;20440;-66
2023/05/15 10:09:52;;;;;;;4.78;4.47;;;;;;;;;;5041139;28;20183;-66
2023/05/15 10:12:18;;;;;;;5.93;5.43;;;;;;;;;;5041258;28;20455;-66
2023/05/15 10:14:45;;;;;;;5.13;4.72;;;;;;;;;;5043400;28;20506;-66
2023/05/15 10:17:12;;;;;;;4.60;4.30;;;;;;;;;;5037953;28;20377;-67
2023/05/15 10:19:39;;;;;;;4.47;4.18;;;;;;;;;;5039801;28;20400;-67
2023/05/15 10:22:05;;;;;;;5.00;4.60;;;;;;;;;;5044198;28;20056;-67
2023/05/15 10:24:32;;;;;;;4.03;3.72;;;;;;;;;;5042835;28;20072;-66
2023/05/15 10:26:58;;;;;;;4.18;3.78;;;;;;;;;;5040958;28;20041;-67
2023/05/15 10:29:26;;;;;;;4.20;3.90;;;;;;;;;;5020382;28;20048;-66
2023/05/15 10:31:52;;;;;;;4.40;4.00;;;;;;;;;;5039443;28;20076;-67
2023/05/15 10:34:19;;;;;;;9.95;4.07;;;;;;;;;;5041413;28;20063;-66
2023/05/15 10:36:45;;;;;;;4.15;3.83;;;;;;;;;;5040017;28;20119;-66
2023/05/15 10:39:11;;;;;;;4.60;4.22;;;;;;;;;;5042480;28;20083;-66
2023/05/15 10:41:38;;;;;;;3.90;3.60;;;;;;;;;;5043566;28;20504;-66
2023/05/15 10:44:04;;;;;;;4.40;4.10;;;;;;;;;;5035138;28;20026;-67
2023/05/15 10:46:33;;;;;;;5.00;4.60;;;;;;;;;;5034976;28;20486;-66
2023/05/15 10:49:00;;;;;;;5.20;4.70;;;;;;;;;;5039376;28;20546;-66
2023/05/15 10:51:32;;;;;;;5.28;4.85;;;;;;;;;;5037838;28;20113;-66
2023/05/15 10:53:59;;;;;;;4.82;4.40;;;;;;;;;;5031862;28;20057;-66
2023/05/15 10:56:37;;;;;;;4.43;3.97;;;;;;;;;;5040776;28;20045;-65
2023/05/15 10:59:07;;;;;;;4.50;4.10;;;;;;;;;;5039877;28;20094;-66
2023/05/15 11:01:35;;;;;;;4.82;4.53;;;;;;;;;;5040438;28;20155;-66
2023/05/15 11:04:03;;;;;;;4.72;4.32;;;;;;;;;;5040291;28;20543;-67
2023/05/15 11:06:32;;;;;;;4.90;4.60;;;;;;;;;;5044516;28;20622;-67
2023/05/15 11:09:26;;;;;;;5.05;4.55;;;;;;;;;;5042793;28;20467;-66
2023/05/15 11:11:51;;;;;;;4.47;4.18;;;;;;;;;;5035762;28;20098;-67
2023/05/15 11:14:21;;;;;;;4.50;4.20;;;;;;;;;;5042011;28;20323;-66
2023/05/15 11:16:53;;;;;;;4.47;4.10;;;;;;;;;;5040793;28;20048;-67
2023/05/15 11:19:24;;;;;;;4.78;4.18;;;;;;;;;;5016755;28;20033;-67
2023/05/15 11:21:59;;;;;;;4.93;4.53;;;;;;;;;;5043253;28;20087;-67
2023/05/15 11:24:45;;;;;;;4.40;4.10;;;;;;;;;;5041617;28;20033;-67
2023/05/15 11:27:12;;;;;;;5.07;4.18;;;;;;;;;;5042516;28;20051;-67
2023/05/15 11:30:09;;;;;;;4.20;3.90;;;;;;;;;;5035540;28;20028;-66
2023/05/15 11:32:48;;;;;;;4.43;4.13;;;;;;;;;;5046217;28;20033;-66
2023/05/15 11:35:27;;;;;;;4.68;4.28;;;;;;;;;;5036174;28;20037;-66
2023/05/15 11:37:55;;;;;;;4.20;3.97;;;;;;;;;;5039792;28;20238;-67
2023/05/15 11:40:25;;;;;;;4.35;4.05;;;;;;;;;;5042465;28;20032;-67
2023/05/15 11:43:19;;;;;;;4.47;4.18;;;;;;;;;;5038993;28;20102;-66
2023/05/15 11:46:13;;;;;;;4.50;4.20;;;;;;;;;;5033922;28;20049;-66
2023/05/15 11:48:41;;;;;;;5.57;4.40;;;;;;;;;;5037471;28;20044;-66
2023/05/15 11:51:20;;;;;;;4.55;4.25;;;;;;;;;;5040794;28;20028;-66
2023/05/15 11:53:48;;;;;;;5.32;4.93;;;;;;;;;;5033016;28;20025;-66
2023/05/15 11:56:29;;;;;;;9.82;5.03;;;;;;;;;;5036562;28;20056;-66
2023/05/15 11:59:00;;;;;;;5.30;4.35;;;;;;;;;;5024780;28;20125;-66
2023/05/15 12:01:25;;;;;;;5.15;4.75;;;;;;;;;;5027303;28;20029;-67
2023/05/15 12:03:52;;;;;;;6.63;4.63;;;;;;;;;;5036129;28;20052;-67
2023/05/15 12:06:18;;;;;;;4.80;4.50;;;;;;;;;;5034778;28;20072;-66
2023/05/15 12:08:50;;;;;;;5.10;4.80;;;;;;;;;;5040297;28;20053;-67
2023/05/15 12:11:16;;;;;;;5.10;4.70;;;;;;;;;;5019548;28;20072;-66
2023/05/15 12:13:41;;;;;;;5.05;4.65;;;;;;;;;;5043051;28;20052;-66
2023/05/15 12:16:07;;;;;;;4.90;4.50;;;;;;;;;;5031189;28;20124;-66
2023/05/15 12:18:32;;;;;;;4.97;4.63;;;;;;;;;;5034471;28;20048;-65
2023/05/15 12:20:59;;;;;;;5.20;4.70;;;;;;;;;;5031057;28;20120;-65
2023/05/15 12:23:26;;;;;;;5.85;5.45;;;;;;;;;;5032149;28;20033;-66
2023/05/15 12:25:57;;;;;;;4.72;4.43;;;;;;;;;;5035394;28;20048;-65
2023/05/15 12:28:23;;;;;;;4.93;4.53;;;;;;;;;;5034853;28;20794;-64
2023/05/15 12:30:49;;;;;;;4.82;4.30;;;;;;;;;;5030915;28;20477;-67
2023/05/15 12:33:16;;;;;;;5.00;4.70;;;;;;;;;;5036653;28;20552;-65
2023/05/15 12:35:43;;;;;;;5.28;4.90;;;;;;;;;;5035065;28;20512;-65
2023/05/15 12:38:14;;;;;;;5.45;5.05;;;;;;;;;;5034675;28;20128;-66
2023/05/15 12:40:42;;;;;;;5.28;4.90;;;;;;;;;;5037574;28;20044;-66
2023/05/15 12:43:09;;;;;;;4.90;4.60;;;;;;;;;;5037642;28;20487;-66
2023/05/15 12:45:39;;;;;;;4.80;4.50;;;;;;;;;;5030593;28;20036;-66
2023/05/15 12:48:06;;;;;;;4.88;4.55;;;;;;;;;;5035126;28;20128;-66
2023/05/15 12:50:33;;;;;;;5.10;4.70;;;;;;;;;;5041547;28;20041;-66
2023/05/15 12:53:04;;;;;;;5.43;4.93;;;;;;;;;;5034676;28;20552;-66
2023/05/15 12:55:34;;;;;;;5.90;5.50;;;;;;;;;;5038431;28;20610;-66
2023/05/15 12:58:06;;;;;;;5.18;4.88;;;;;;;;;;5040323;28;20033;-66
2023/05/15 13:00:34;;;;;;;5.20;4.80;;;;;;;;;;5033197;28;20037;-66
2023/05/15 13:03:00;;;;;;;5.25;4.85;;;;;;;;;;5034211;28;20037;-66
2023/05/15 13:05:36;;;;;;;5.60;5.20;;;;;;;;;;5039160;28;20115;-66
2023/05/15 13:08:04;;;;;;;5.65;5.10;;;;;;;;;;5034138;28;20045;-66
2023/05/15 13:10:35;;;;;;;5.72;5.22;;;;;;;;;;5032529;28;20409;-66
2023/05/15 13:13:00;;;;;;;5.43;5.03;;;;;;;;;;5037909;28;20039;-66
2023/05/15 13:15:35;;;;;;;5.55;5.20;;;;;;;;;;5036960;28;20112;-66
2023/05/15 13:18:02;;;;;;;5.93;5.43;;;;;;;;;;5031746;28;20102;-65
2023/05/15 13:20:34;;;;;;;5.00;4.70;;;;;;;;;;5038637;28;20045;-65
2023/05/15 13:23:01;;;;;;;5.30;4.90;;;;;;;;;;5036241;28;20467;-65
2023/05/15 13:25:27;;;;;;;6.85;5.15;;;;;;;;;;5033331;28;20387;-66
2023/05/15 13:27:56;;;;;;;5.72;5.32;;;;;;;;;;5035802;28;20056;-65
2023/05/15 13:30:21;;;;;;;;;;;;;;;;;;5037673;28;20108;-66
2023/05/15 13:32:47;;;;;;;6.07;5.68;;;;;;;;;;5034472;28;19995;-66
2023/05/15 13:35:13;;;;;;;6.10;5.70;;;;;;;;;;5030195;28;20033;-66
2023/05/15 13:37:38;;;;;;;5.60;5.30;;;;;;;;;;5040679;28;20037;-66
2023/05/15 13:40:08;;;;;;;5.68;5.28;;;;;;;;;;5036385;28;20534;-66
2023/05/15 13:42:35;;;;;;;5.75;5.35;;;;;;;;;;5037859;28;20441;-67
2023/05/15 13:45:02;;;;;;;5.55;5.25;;;;;;;;;;5042868;28;20033;-66
2023/05/15 13:47:27;;;;;;;5.65;5.25;;;;;;;;;;5040985;28;20507;-66
2023/05/15 13:49:53;;;;;;;6.00;5.60;;;;;;;;;;5038989;28;20029;-67
2023/05/15 13:52:19;;;;;;;5.53;5.22;;;;;;;;;;5036348;28;20556;-66
2023/05/15 13:54:44;;;;;;;5.95;5.55;;;;;;;;;;5043707;28;20575;-66
2023/05/15 13:57:10;;;;;;;5.90;5.50;;;;;;;;;;5043113;28;20041;-65
2023/05/15 13:59:35;;;;;;;6.22;5.72;;;;;;;;;;5036339;28;20040;-66
2023/05/15 14:02:01;;;;;;;5.88;5.30;;;;;;;;;;5035953;28;20087;-66
2023/05/15 14:04:26;;;;;;;6.00;5.50;;;;;;;;;;5032987;28;20033;-66
2023/05/15 14:06:52;;;;;;;5.38;5.07;;;;;;;;;;5046459;28;20033;-66
2023/05/15 14:09:17;;;;;;;6.00;5.60;;;;;;;;;;5037033;28;20083;-66
2023/05/15 14:11:43;;;;;;;6.75;6.20;;;;;;;;;;5042624;28;20037;-67
2023/05/15 14:14:08;;;;;;;6.63;6.13;;;;;;;;;;5043467;28;20378;-67
2023/05/15 14:16:33;;;;;;;5.65;5.25;;;;;;;;;;5043694;28;20075;-66
2023/05/15 14:18:59;;;;;;;6.40;5.90;;;;;;;;;;5039223;28;20129;-66
2023/05/15 14:21:26;;;;;;;5.97;5.57;;;;;;;;;;5039760;28;20044;-66
2023/05/15 14:23:52;;;;;;;6.35;5.90;;;;;;;;;;5036724;28;20598;-66
2023/05/15 14:26:17;;;;;;;6.35;5.75;;;;;;;;;;5039814;28;20090;-66
2023/05/15 14:28:43;;;;;;;6.90;6.40;;;;;;;;;;5037917;28;20041;-66
2023/05/15 14:31:08;;;;;;;6.43;5.80;;;;;;;;;;5033121;28;20066;-67
2023/05/15 14:33:34;;;;;;;6.50;5.90;;;;;;;;;;5042908;28;20029;-67
2023/05/15 14:36:00;;;;;;;8.45;6.25;;;;;;;;;;5045859;28;20507;-67
2023/05/15 14:38:25;;;;;;;6.30;5.90;;;;;;;;;;5037747;28;20064;-67
2023/05/15 14:40:51;;;;;;;6.57;6.07;;;;;;;;;;5039973;28;20069;-67
2023/05/15 14:43:16;;;;;;;6.43;5.82;;;;;;;;;;5038126;28;20558;-67
2023/05/15 14:45:42;;;;;;;6.32;5.80;;;;;;;;;;5038932;28;20041;-67